Time;durP1;ratioP1;P1;durP2;ratioP2;P2;SDS_P1;SDS_P2;PMS_P1;PMS_P2;Temp;Humidity;BMP_temperature;BMP_pressure;BME280_temperature;BME280_humidity;BME280_pressure;Samples;Min_cycle;Max_cycle;Signal;HPM_P1;HPM_P2
2021/11/03 00:01:25;;;;;;;18.20;12.00;;;7.70;99.90;;;;;;4954383;29;20511;-49
2021/11/03 00:03:51;;;;;;;19.60;10.93;;;7.80;99.90;;;;;;4953359;29;20194;-50
2021/11/03 00:06:19;;;;;;;13.87;10.43;;;7.70;99.90;;;;;;4953565;29;20201;-50
2021/11/03 00:08:45;;;;;;;16.90;11.20;;;7.80;99.90;;;;;;4949843;29;20469;-48
2021/11/03 00:11:11;;;;;;;12.47;10.03;;;7.80;99.90;;;;;;4954246;29;20789;-47
2021/11/03 00:13:36;;;;;;;13.97;10.70;;;7.80;99.90;;;;;;4952483;29;20441;-51
2021/11/03 00:16:02;;;;;;;12.93;10.60;;;7.80;99.90;;;;;;4954092;29;20189;-49
2021/11/03 00:18:27;;;;;;;16.07;10.30;;;7.80;99.90;;;;;;4953953;29;20276;-47
2021/11/03 00:20:56;;;;;;;15.30;10.73;;;7.90;99.90;;;;;;4953423;29;20208;-47
2021/11/03 00:23:21;;;;;;;14.70;9.83;;;7.90;99.90;;;;;;4953654;29;20201;-50
2021/11/03 00:25:47;;;;;;;14.23;10.97;;;7.90;99.90;;;;;;4951092;29;20812;-52
2021/11/03 00:28:16;;;;;;;14.73;10.80;;;8.00;99.90;;;;;;4953831;29;20209;-52
2021/11/03 00:30:44;;;;;;;14.40;10.73;;;8.00;99.90;;;;;;4953793;29;20449;-54
2021/11/03 00:33:10;;;;;;;13.03;10.27;;;8.00;99.90;;;;;;4952950;29;20480;-49
2021/11/03 00:35:35;;;;;;;15.80;10.50;;;8.00;99.90;;;;;;4952866;29;20437;-53
2021/11/03 00:38:01;;;;;;;14.87;9.77;;;8.00;99.90;;;;;;4952929;29;20190;-52
2021/11/03 00:40:26;;;;;;;13.37;10.23;;;8.10;99.90;;;;;;4954031;29;20767;-51
2021/11/03 00:42:52;;;;;;;14.87;10.70;;;8.10;99.90;;;;;;4947263;29;20657;-47
2021/11/03 00:45:19;;;;;;;16.53;11.47;;;8.10;99.90;;;;;;4953603;29;20193;-50
2021/11/03 00:47:45;;;;;;;12.63;9.10;;;8.20;99.90;;;;;;4953278;29;20217;-47
2021/11/03 00:50:11;;;;;;;14.00;10.23;;;8.10;99.90;;;;;;4952938;29;20533;-52
2021/11/03 00:52:37;;;;;;;13.37;10.07;;;8.10;99.90;;;;;;4946056;29;20267;-50
2021/11/03 00:55:03;;;;;;;12.83;9.60;;;8.20;99.90;;;;;;4953429;29;20444;-51
2021/11/03 00:57:28;;;;;;;11.87;9.57;;;8.20;99.90;;;;;;4952159;28;21054;-48
2021/11/03 00:59:54;;;;;;;12.00;9.03;;;8.20;99.90;;;;;;4952743;29;20441;-49
2021/11/03 01:02:20;;;;;;;11.53;9.33;;;8.20;99.90;;;;;;4953161;29;20731;-52
2021/11/03 01:04:45;;;;;;;11.80;8.77;;;8.20;99.90;;;;;;4952712;29;20308;-50
2021/11/03 01:07:12;;;;;;;14.60;9.30;;;8.30;99.90;;;;;;4953098;29;20188;-49
2021/11/03 01:09:38;;;;;;;15.53;9.83;;;8.30;99.90;;;;;;4938528;29;20221;-49
2021/11/03 01:12:04;;;;;;;12.33;8.90;;;8.40;99.90;;;;;;4948121;29;20437;-53
2021/11/03 01:14:30;;;;;;;10.73;8.80;;;8.40;99.90;;;;;;4952847;29;20490;-51
2021/11/03 01:16:56;;;;;;;10.10;8.60;;;8.40;99.90;;;;;;4950615;29;20441;-50
2021/11/03 01:19:22;;;;;;;10.80;8.00;;;8.40;99.90;;;;;;4953275;29;20216;-51
2021/11/03 01:21:47;;;;;;;12.50;9.40;;;8.40;99.90;;;;;;4929829;29;20214;-51
2021/11/03 01:24:13;;;;;;;11.20;9.30;;;8.20;99.90;;;;;;4941198;29;20272;-48
2021/11/03 01:26:38;;;;;;;11.30;8.33;;;8.20;99.90;;;;;;4950967;29;20224;-47
2021/11/03 01:29:06;;;;;;;13.10;9.90;;;8.30;99.90;;;;;;4952838;29;20304;-49
2021/11/03 01:31:32;;;;;;;11.10;8.90;;;8.30;99.90;;;;;;4953002;29;20193;-52
2021/11/03 01:33:59;;;;;;;11.50;9.20;;;8.30;99.90;;;;;;4952413;29;20477;-51
2021/11/03 01:36:25;;;;;;;11.30;9.30;;;8.20;99.90;;;;;;4944014;29;20465;-50
2021/11/03 01:38:51;;;;;;;11.10;9.13;;;8.20;99.90;;;;;;4949355;29;20516;-49
2021/11/03 01:41:20;;;;;;;10.00;8.17;;;8.20;99.90;;;;;;4951538;29;20993;-50
2021/11/03 01:43:48;;;;;;;11.20;8.57;;;8.20;99.90;;;;;;4954136;29;20456;-49
2021/11/03 01:46:23;;;;;;;10.17;8.10;;;8.20;99.90;;;;;;4953435;29;20999;-50
2021/11/03 01:48:54;;;;;;;9.27;8.27;;;8.20;99.90;;;;;;4954114;29;20449;-48
2021/11/03 01:51:27;;;;;;;11.20;8.23;;;8.20;99.90;;;;;;4952840;29;20440;-50
2021/11/03 01:53:53;;;;;;;11.43;8.67;;;8.20;99.90;;;;;;4954115;29;20449;-50
2021/11/03 01:56:19;;;;;;;9.37;7.90;;;8.30;99.90;;;;;;4954088;29;20422;-46
2021/11/03 01:59:06;;;;;;;10.97;8.57;;;8.30;99.90;;;;;;4954192;29;20224;-49
2021/11/03 02:01:32;;;;;;;12.07;8.63;;;8.40;99.90;;;;;;4941700;29;20480;-49
2021/11/03 02:03:58;;;;;;;10.30;8.17;;;8.40;99.90;;;;;;4953824;29;20417;-49
2021/11/03 02:06:26;;;;;;;10.87;8.50;;;8.20;99.90;;;;;;4953996;29;20764;-47
2021/11/03 02:08:53;;;;;;;9.27;7.60;;;8.20;99.90;;;;;;4952059;28;20344;-54
2021/11/03 02:11:21;;;;;;;9.73;7.83;;;8.20;99.90;;;;;;4953699;29;20434;-47
2021/11/03 02:13:47;;;;;;;11.33;8.27;;;8.10;99.90;;;;;;4942353;29;20453;-50
2021/11/03 02:16:15;;;;;;;9.60;7.40;;;8.10;99.90;;;;;;4934965;29;20510;-50
2021/11/03 02:18:41;;;;;;;8.73;7.40;;;8.10;99.90;;;;;;4934327;29;20438;-47
2021/11/03 02:21:09;;;;;;;9.10;7.63;;;8.10;99.90;;;;;;4934537;29;20418;-50
2021/11/03 02:23:52;;;;;;;10.43;7.47;;;8.10;99.90;;;;;;4935194;29;20458;-49
2021/11/03 02:26:21;;;;;;;11.03;8.23;;;8.10;99.90;;;;;;4948566;28;20561;-50
2021/11/03 02:28:48;;;;;;;11.40;8.03;;;8.10;99.90;;;;;;4949982;29;20480;-49
2021/11/03 02:31:53;;;;;;;8.40;7.30;;;8.00;99.90;;;;;;4952458;29;20438;-49
2021/11/03 02:34:25;;;;;;;8.27;6.73;;;7.90;99.90;;;;;;4864463;29;20581;-49
2021/11/03 02:36:58;;;;;;;8.13;6.93;;;7.80;99.90;;;;;;4942341;29;20444;-50
2021/11/03 02:39:43;;;;;;;7.07;5.80;;;7.70;99.90;;;;;;4952359;29;20495;-53
2021/11/03 02:42:10;;;;;;;8.20;5.80;;;7.70;99.90;;;;;;4951141;29;20421;-50
2021/11/03 02:44:39;;;;;;;8.47;6.93;;;7.60;99.90;;;;;;4940521;29;20522;-52
2021/11/03 02:47:05;;;;;;;8.97;7.23;;;7.50;99.90;;;;;;4951353;29;21376;-50
2021/11/03 02:49:31;;;;;;;10.03;6.63;;;7.40;99.90;;;;;;4950568;29;20476;-49
2021/11/03 02:51:57;;;;;;;8.00;6.97;;;7.30;99.90;;;;;;4950742;29;20484;-49
2021/11/03 02:54:23;;;;;;;8.93;6.63;;;7.30;99.90;;;;;;4951227;29;20244;-50
2021/11/03 02:56:57;;;;;;;8.20;6.30;;;7.20;99.90;;;;;;4945642;29;20442;-49
2021/11/03 02:59:25;;;;;;;8.00;6.50;;;7.10;99.90;;;;;;4951138;29;20460;-48
2021/11/03 03:01:59;;;;;;;8.40;6.13;;;7.10;99.90;;;;;;4933985;29;20438;-48
2021/11/03 03:04:34;;;;;;;7.53;5.77;;;7.00;99.90;;;;;;4951019;28;20451;-48
2021/11/03 03:07:00;;;;;;;7.60;6.70;;;7.00;99.90;;;;;;4950095;29;20551;-50
2021/11/03 03:09:25;;;;;;;8.93;6.83;;;6.90;99.90;;;;;;4951151;29;20564;-50
2021/11/03 03:11:55;;;;;;;9.93;6.60;;;6.80;99.90;;;;;;4950501;29;20200;-50
2021/11/03 03:14:23;;;;;;;7.80;6.77;;;6.80;99.90;;;;;;4940806;29;20534;-49
2021/11/03 03:16:49;;;;;;;9.80;7.23;;;6.80;99.90;;;;;;4951276;29;20425;-49
2021/11/03 03:19:16;;;;;;;9.63;6.70;;;6.70;99.90;;;;;;4951109;28;21083;-49
2021/11/03 03:21:41;;;;;;;7.27;5.93;;;6.60;99.90;;;;;;4954441;29;20244;-51
2021/11/03 03:24:09;;;;;;;9.80;7.33;;;6.70;99.90;;;;;;4948597;29;20438;-51
2021/11/03 03:26:35;;;;;;;8.83;6.70;;;6.60;99.90;;;;;;4952906;29;20204;-48
2021/11/03 03:29:02;;;;;;;8.67;6.20;;;6.60;99.90;;;;;;4954361;29;21034;-47
2021/11/03 03:31:28;;;;;;;9.90;6.80;;;6.50;99.90;;;;;;4954647;29;20979;-48
2021/11/03 03:33:58;;;;;;;7.93;5.80;;;6.50;99.90;;;;;;4953811;29;20226;-47
2021/11/03 03:36:24;;;;;;;8.97;6.67;;;6.40;99.90;;;;;;4954841;29;20516;-49
2021/11/03 03:38:51;;;;;;;10.13;6.90;;;6.30;99.90;;;;;;4948879;29;20465;-55
2021/11/03 03:41:17;;;;;;;8.80;6.90;;;6.40;99.90;;;;;;4930523;29;20457;-49
2021/11/03 03:43:44;;;;;;;11.50;7.60;;;6.30;99.90;;;;;;4954687;29;20441;-48
2021/11/03 03:46:11;;;;;;;10.07;7.07;;;6.30;99.90;;;;;;4949750;29;20208;-48
2021/11/03 03:48:37;;;;;;;10.43;7.35;;;6.30;99.90;;;;;;4953591;29;20209;-50
2021/11/03 03:51:03;;;;;;;9.60;8.18;;;6.30;99.90;;;;;;4953927;29;20217;-48
2021/11/03 03:53:29;;;;;;;9.83;7.87;;;6.20;99.90;;;;;;4954515;29;20177;-49
2021/11/03 03:55:55;;;;;;;9.60;7.50;;;6.30;99.90;;;;;;4950454;29;20468;-49
2021/11/03 03:58:20;;;;;;;10.27;7.67;;;6.30;99.90;;;;;;4954419;29;20177;-50
2021/11/03 04:00:51;;;;;;;8.83;6.93;;;6.30;99.90;;;;;;4952933;29;20681;-48
2021/11/03 04:03:17;;;;;;;12.93;7.60;;;6.30;99.90;;;;;;4954254;29;20265;-50
2021/11/03 04:05:44;;;;;;;9.10;7.10;;;6.40;99.90;;;;;;4953244;29;20437;-52
2021/11/03 04:08:14;;;;;;;9.63;7.60;;;6.40;99.90;;;;;;4954293;29;20461;-50
2021/11/03 04:10:41;;;;;;;11.47;6.93;;;6.50;99.90;;;;;;4953131;29;20455;-51
2021/11/03 04:13:07;;;;;;;11.37;8.80;;;6.60;99.90;;;;;;4954160;29;20429;-47
2021/11/03 04:15:34;;;;;;;10.50;8.27;;;6.70;99.90;;;;;;4953763;28;20425;-48
2021/11/03 04:18:00;;;;;;;9.63;7.37;;;6.70;99.90;;;;;;4953919;29;20480;-50
2021/11/03 04:20:25;;;;;;;9.03;7.27;;;6.70;99.90;;;;;;4953419;29;21297;-50
2021/11/03 04:22:51;;;;;;;10.47;8.40;;;6.80;99.90;;;;;;4954037;29;20951;-47
2021/11/03 04:25:17;;;;;;;9.00;7.73;;;6.80;99.90;;;;;;4953470;29;20660;-49
2021/11/03 04:27:43;;;;;;;9.70;7.57;;;6.90;99.90;;;;;;4953754;29;20273;-50
2021/11/03 04:30:11;;;;;;;10.30;8.10;;;6.90;99.90;;;;;;4953346;29;20418;-47
2021/11/03 04:32:37;;;;;;;11.43;8.40;;;6.90;99.90;;;;;;4948280;29;20276;-48
2021/11/03 04:35:04;;;;;;;11.97;8.60;;;6.90;99.90;;;;;;4950696;29;20540;-47
2021/11/03 04:37:31;;;;;;;10.40;8.40;;;7.00;99.90;;;;;;4948922;29;20225;-51
2021/11/03 04:39:56;;;;;;;10.80;7.53;;;7.00;99.90;;;;;;4939793;29;20425;-52
2021/11/03 04:42:22;;;;;;;9.43;7.50;;;7.00;99.90;;;;;;4953291;29;20435;-48
2021/11/03 04:44:47;;;;;;;10.47;8.00;;;7.10;99.90;;;;;;4948691;29;20189;-51
2021/11/03 04:47:13;;;;;;;9.63;7.70;;;7.10;99.90;;;;;;4948558;29;20193;-50
2021/11/03 04:49:39;;;;;;;10.73;8.43;;;7.20;99.90;;;;;;4923145;29;20213;-50
2021/11/03 04:52:05;;;;;;;10.37;7.17;;;7.10;99.90;;;;;;4952628;29;20248;-51
2021/11/03 04:54:30;;;;;;;10.40;7.90;;;7.20;99.90;;;;;;4952706;29;20451;-50
2021/11/03 04:56:56;;;;;;;9.83;8.27;;;7.30;99.90;;;;;;4946751;29;20213;-49
2021/11/03 04:59:23;;;;;;;11.63;8.13;;;7.40;99.90;;;;;;4937905;29;20241;-48
2021/11/03 05:01:49;;;;;;;11.17;7.60;;;7.40;99.90;;;;;;4945048;29;20178;-47
2021/11/03 05:04:15;;;;;;;11.87;9.27;;;7.40;99.90;;;;;;4941384;29;20430;-47
2021/11/03 05:06:42;;;;;;;13.20;8.57;;;7.40;99.90;;;;;;4945197;29;20448;-50
2021/11/03 05:09:08;;;;;;;10.67;8.03;;;7.40;99.90;;;;;;4948847;29;20469;-46
2021/11/03 05:11:35;;;;;;;10.70;8.00;;;7.40;99.90;;;;;;4948639;29;20476;-51
2021/11/03 05:14:02;;;;;;;10.63;8.40;;;7.50;99.90;;;;;;4950038;29;20500;-49
2021/11/03 05:16:27;;;;;;;11.10;8.50;;;7.40;99.90;;;;;;4949961;29;20453;-49
2021/11/03 05:18:54;;;;;;;11.70;8.63;;;7.40;99.90;;;;;;4951081;29;20746;-52
2021/11/03 05:21:20;;;;;;;12.37;9.33;;;7.40;99.90;;;;;;4937955;29;20193;-50
2021/11/03 05:23:47;;;;;;;13.53;10.07;;;7.30;99.90;;;;;;4944839;29;20441;-51
2021/11/03 05:26:17;;;;;;;13.23;9.40;;;7.30;99.90;;;;;;4942038;29;20432;-53
2021/11/03 05:28:47;;;;;;;12.97;9.63;;;7.30;99.90;;;;;;4944271;29;20967;-51
2021/11/03 05:31:13;;;;;;;13.03;9.33;;;7.30;99.90;;;;;;4943670;29;20417;-45
2021/11/03 05:33:38;;;;;;;14.20;10.73;;;7.30;99.90;;;;;;4942947;29;20479;-51
2021/11/03 05:36:04;;;;;;;12.73;10.00;;;7.30;99.90;;;;;;4945977;29;20193;-48
2021/11/03 05:38:30;;;;;;;14.80;10.20;;;7.30;99.90;;;;;;4951810;29;20221;-52
2021/11/03 05:40:55;;;;;;;12.83;9.93;;;7.30;99.90;;;;;;4951395;29;20199;-50
2021/11/03 05:43:21;;;;;;;16.90;10.13;;;7.30;99.90;;;;;;4949918;28;20190;-46
2021/11/03 05:45:47;;;;;;;13.63;10.07;;;7.30;99.90;;;;;;4951219;29;20205;-46
2021/11/03 05:48:13;;;;;;;15.67;10.67;;;7.30;99.90;;;;;;4952296;29;20220;-50
2021/11/03 05:50:39;;;;;;;15.43;11.27;;;7.30;99.90;;;;;;4952757;29;20433;-49
2021/11/03 05:53:05;;;;;;;15.10;10.70;;;7.20;99.90;;;;;;4951726;29;20198;-49
2021/11/03 05:55:31;;;;;;;17.03;11.57;;;7.20;99.90;;;;;;4952103;29;20484;-53
2021/11/03 05:57:57;;;;;;;16.50;11.90;;;7.10;99.90;;;;;;4952383;29;20271;-52
2021/11/03 06:00:28;;;;;;;21.10;12.57;;;7.00;99.90;;;;;;4949192;29;21223;-49
2021/11/03 06:02:53;;;;;;;16.98;10.80;;;7.00;99.90;;;;;;4947929;29;20213;-53
2021/11/03 06:05:20;;;;;;;13.93;10.30;;;6.90;99.90;;;;;;4952398;29;20213;-51
2021/11/03 06:08:06;;;;;;;17.63;11.53;;;6.80;99.90;;;;;;4952059;29;20547;-56
2021/11/03 06:10:39;;;;;;;19.73;11.95;;;6.70;99.90;;;;;;4950988;29;21094;-51
2021/11/03 06:13:10;;;;;;;16.80;11.00;;;6.70;99.90;;;;;;4942603;29;20189;-49
2021/11/03 06:15:37;;;;;;;16.23;11.13;;;6.70;99.90;;;;;;4951965;29;20440;-51
2021/11/03 06:18:04;;;;;;;19.90;12.75;;;6.70;99.90;;;;;;4950706;29;20441;-53
2021/11/03 06:20:30;;;;;;;16.60;11.57;;;6.70;99.90;;;;;;4952113;29;20194;-51
2021/11/03 06:22:56;;;;;;;16.45;11.65;;;6.70;99.90;;;;;;4950579;29;20448;-50
2021/11/03 06:25:24;;;;;;;17.73;12.43;;;6.70;99.90;;;;;;4951563;29;20186;-53
2021/11/03 06:27:51;;;;;;;19.90;13.82;;;6.60;99.90;;;;;;4950066;29;20680;-49
2021/11/03 06:30:20;;;;;;;18.40;13.03;;;6.60;99.90;;;;;;4951922;29;20201;-52
2021/11/03 06:32:46;;;;;;;16.90;11.55;;;6.70;99.90;;;;;;4950718;29;20908;-53
2021/11/03 06:35:12;;;;;;;17.33;12.23;;;6.70;99.90;;;;;;4951888;29;20236;-51
2021/11/03 06:37:38;;;;;;;14.40;11.03;;;6.80;99.90;;;;;;4951519;29;20173;-53
2021/11/03 06:40:07;;;;;;;17.83;12.30;;;6.80;99.90;;;;;;4951202;29;20549;-53
2021/11/03 06:42:32;;;;;;;17.55;11.35;;;6.80;99.90;;;;;;4941649;29;20183;-57
2021/11/03 06:44:58;;;;;;;17.00;12.43;;;6.80;99.90;;;;;;4950914;29;20196;-50
2021/11/03 06:47:24;;;;;;;16.03;12.60;;;6.90;99.90;;;;;;4946672;29;20181;-52
2021/11/03 06:49:49;;;;;;;16.23;11.33;;;6.90;99.90;;;;;;4951424;29;20564;-50
2021/11/03 06:52:15;;;;;;;16.77;12.10;;;7.00;99.90;;;;;;4949568;29;20220;-49
2021/11/03 06:54:41;;;;;;;13.83;9.80;;;7.20;99.90;;;;;;4949099;28;20649;-49
2021/11/03 06:57:07;;;;;;;15.10;10.30;;;7.20;99.90;;;;;;4947713;29;20212;-54
2021/11/03 06:59:32;;;;;;;13.30;10.50;;;7.20;99.90;;;;;;4951016;29;20433;-51
2021/11/03 07:01:59;;;;;;;14.20;10.90;;;7.30;99.90;;;;;;4949116;29;20437;-48
2021/11/03 07:04:24;;;;;;;14.30;11.00;;;7.40;99.90;;;;;;4950804;29;20447;-52
2021/11/03 07:06:50;;;;;;;14.50;9.97;;;7.50;99.90;;;;;;4943470;29;20201;-50
2021/11/03 07:09:16;;;;;;;13.80;10.37;;;7.60;99.90;;;;;;4925730;29;20661;-53
2021/11/03 07:11:42;;;;;;;12.83;9.83;;;7.70;99.90;;;;;;4933214;29;20194;-51
2021/11/03 07:14:08;;;;;;;13.57;9.93;;;7.70;99.90;;;;;;4950736;29;20480;-56
2021/11/03 07:16:35;;;;;;;12.53;10.27;;;7.70;99.90;;;;;;4950923;29;20190;-51
2021/11/03 07:19:01;;;;;;;10.90;9.23;;;7.80;99.90;;;;;;4950900;29;20469;-52
2021/11/03 07:21:28;;;;;;;12.60;9.17;;;7.90;99.90;;;;;;4933467;29;20452;-56
2021/11/03 07:23:53;;;;;;;13.67;10.30;;;8.00;99.90;;;;;;4950674;29;20520;-54
2021/11/03 07:26:19;;;;;;;19.10;13.77;;;8.00;99.90;;;;;;4950855;29;20912;-51
2021/11/03 07:28:45;;;;;;;14.40;10.40;;;8.10;99.90;;;;;;4950692;29;20668;-53
2021/11/03 07:31:11;;;;;;;12.50;9.40;;;8.30;99.90;;;;;;4950532;29;20429;-54
2021/11/03 07:33:37;;;;;;;11.53;9.00;;;8.40;99.90;;;;;;4948400;29;20519;-52
2021/11/03 07:36:06;;;;;;;14.60;9.60;;;8.50;99.90;;;;;;4950534;29;20421;-59
2021/11/03 07:38:32;;;;;;;14.13;9.67;;;8.60;99.90;;;;;;4950487;29;20542;-53
2021/11/03 07:40:58;;;;;;;13.50;9.53;;;8.80;99.90;;;;;;4950336;29;20469;-50
2021/11/03 07:43:26;;;;;;;11.87;9.67;;;9.00;99.90;;;;;;4950565;29;20943;-51
2021/11/03 07:45:54;;;;;;;13.67;10.10;;;9.20;99.90;;;;;;4950393;29;20197;-54
2021/11/03 07:48:23;;;;;;;13.67;9.57;;;9.40;99.90;;;;;;4950353;29;20476;-55
2021/11/03 07:50:51;;;;;;;11.10;8.33;;;9.60;99.90;;;;;;4945508;29;20504;-50
2021/11/03 07:53:18;;;;;;;11.67;9.10;;;10.00;99.90;;;;;;4949072;29;20432;-56
2021/11/03 07:55:50;;;;;;;10.47;8.00;;;10.30;99.90;;;;;;4944939;29;20429;-50
2021/11/03 07:58:21;;;;;;;10.07;8.80;;;10.70;99.90;;;;;;4948992;29;20421;-48
2021/11/03 08:00:48;;;;;;;9.53;8.20;;;11.20;99.90;;;;;;4949726;29;20502;-52
2021/11/03 08:03:13;;;;;;;9.73;8.63;;;11.70;99.90;;;;;;4949078;29;20435;-47
2021/11/03 08:05:39;;;;;;;9.47;7.80;;;12.40;99.90;;;;;;4948183;28;20433;-47
2021/11/03 08:08:12;;;;;;;9.00;8.20;;;13.20;99.90;;;;;;4946643;29;20296;-51
2021/11/03 08:10:38;;;;;;;8.93;8.03;;;13.90;99.90;;;;;;4943647;29;20251;-54
2021/11/03 08:13:05;;;;;;;9.47;8.60;;;14.40;99.90;;;;;;4947439;29;20468;-50
2021/11/03 08:15:31;;;;;;;9.67;8.70;;;15.10;99.90;;;;;;4945345;29;21219;-53
2021/11/03 08:17:58;;;;;;;9.17;8.30;;;15.50;97.60;;;;;;4943141;29;20508;-54
2021/11/03 08:20:27;;;;;;;9.83;8.93;;;15.80;95.60;;;;;;4952917;29;21934;-51
2021/11/03 08:22:54;;;;;;;9.80;8.90;;;16.40;93.80;;;;;;4953597;29;21363;-51
2021/11/03 08:25:21;;;;;;;9.43;8.50;;;16.50;92.40;;;;;;4953463;29;20432;-50
2021/11/03 08:27:47;;;;;;;8.67;7.97;;;16.70;92.50;;;;;;4953147;29;20848;-49
2021/11/03 08:30:15;;;;;;;8.10;7.40;;;17.10;92.00;;;;;;4953339;29;20428;-51
2021/11/03 08:32:49;;;;;;;8.67;7.97;;;17.50;90.40;;;;;;4936036;29;20234;-49
2021/11/03 08:35:16;;;;;;;7.83;7.23;;;17.80;88.60;;;;;;4952408;29;20468;-47
2021/11/03 08:37:42;;;;;;;7.90;7.33;;;17.90;86.70;;;;;;4952483;29;20434;-52
2021/11/03 08:40:12;;;;;;;8.17;7.57;;;18.00;85.40;;;;;;4952380;29;20425;-51
2021/11/03 08:42:37;;;;;;;7.50;6.90;;;18.20;83.30;;;;;;4938668;29;20436;-53
2021/11/03 08:45:05;;;;;;;7.60;6.90;;;18.90;81.30;;;;;;4952994;29;20429;-49
2021/11/03 08:47:33;;;;;;;7.53;7.03;;;19.00;74.70;;;;;;4949676;29;20331;-50
2021/11/03 08:49:58;;;;;;;7.00;6.50;;;18.80;73.20;;;;;;4935075;29;20556;-53
2021/11/03 08:52:24;;;;;;;7.27;6.67;;;18.40;73.00;;;;;;4952620;29;20896;-52
2021/11/03 08:54:50;;;;;;;6.53;6.03;;;18.50;73.60;;;;;;4953315;29;20721;-50
2021/11/03 08:57:19;;;;;;;6.80;6.30;;;18.80;75.70;;;;;;4952590;29;20286;-48
2021/11/03 08:59:46;;;;;;;6.90;6.40;;;19.00;69.20;;;;;;4952741;29;20272;-49
2021/11/03 09:02:12;;;;;;;8.90;8.10;;;18.90;69.70;;;;;;4952736;29;20448;-51
2021/11/03 09:04:38;;;;;;;7.33;6.83;;;19.20;72.10;;;;;;4942624;29;20429;-53
2021/11/03 09:07:10;;;;;;;7.63;7.13;;;19.60;68.50;;;;;;4952297;29;20182;-55
2021/11/03 09:09:36;;;;;;;6.47;5.97;;;19.10;68.50;;;;;;4948197;29;20245;-49
2021/11/03 09:12:03;;;;;;;7.47;6.63;;;19.40;69.80;;;;;;4952103;29;21092;-52
2021/11/03 09:14:28;;;;;;;6.63;6.20;;;19.80;67.10;;;;;;4952161;29;20186;-50
2021/11/03 09:16:54;;;;;;;6.93;6.43;;;20.30;65.80;;;;;;4951593;28;20425;-52
2021/11/03 09:19:19;;;;;;;7.20;6.70;;;20.20;65.60;;;;;;4949484;28;20224;-53
2021/11/03 09:21:45;;;;;;;7.67;7.10;;;20.80;62.00;;;;;;4947100;28;20194;-53
2021/11/03 09:24:12;;;;;;;6.63;6.23;;;20.60;62.90;;;;;;4923703;29;20211;-53
2021/11/03 09:26:40;;;;;;;7.90;7.40;;;20.70;60.50;;;;;;4946089;29;20230;-49
2021/11/03 09:29:06;;;;;;;8.33;7.83;;;20.20;61.20;;;;;;4951580;29;20489;-50
2021/11/03 09:31:32;;;;;;;7.40;6.90;;;19.50;62.50;;;;;;4951755;29;20472;-54
2021/11/03 09:33:58;;;;;;;8.30;7.70;;;19.00;64.90;;;;;;4943182;29;20496;-48
2021/11/03 09:36:24;;;;;;;7.17;6.67;;;19.10;64.20;;;;;;4951097;29;20471;-52
2021/11/03 09:38:51;;;;;;;6.87;6.40;;;19.10;64.60;;;;;;4950529;29;20439;-51
2021/11/03 09:41:25;;;;;;;7.93;7.43;;;19.30;65.50;;;;;;4940983;29;20460;-49
2021/11/03 09:43:52;;;;;;;8.07;7.57;;;19.00;66.20;;;;;;4951729;29;20764;-52
2021/11/03 09:46:21;;;;;;;8.60;7.90;;;19.40;66.10;;;;;;4951502;29;20445;-48
2021/11/03 09:49:17;;;;;;;8.70;8.10;;;19.30;67.00;;;;;;4949884;29;20491;-47
2021/11/03 09:51:49;;;;;;;8.30;7.70;;;19.60;66.00;;;;;;4930770;29;20442;-51
2021/11/03 09:54:25;;;;;;;9.90;9.10;;;19.90;67.70;;;;;;4928805;29;20441;-49
2021/11/03 09:56:57;;;;;;;7.40;6.90;;;20.00;65.30;;;;;;4930702;29;20520;-48
2021/11/03 09:59:36;;;;;;;8.53;7.83;;;19.70;65.10;;;;;;4932663;29;20498;-49
2021/11/03 10:02:17;;;;;;;7.20;6.70;;;19.70;67.30;;;;;;4937855;29;20546;-52
2021/11/03 10:05:11;;;;;;;8.27;7.67;;;20.10;64.80;;;;;;4949400;29;20414;-50
2021/11/03 10:07:55;;;;;;;8.37;7.77;;;20.10;64.00;;;;;;4950447;29;20455;-51
2021/11/03 10:10:32;;;;;;;8.23;7.63;;;20.10;63.40;;;;;;4945480;29;20499;-51
2021/11/03 10:13:00;;;;;;;8.60;8.00;;;19.80;62.70;;;;;;4945619;28;20437;-46
2021/11/03 10:15:27;;;;;;;8.50;7.90;;;19.70;63.70;;;;;;4949352;29;20433;-50
2021/11/03 10:18:20;;;;;;;8.03;7.43;;;19.70;64.20;;;;;;4948794;29;20429;-52
2021/11/03 10:21:17;;;;;;;7.33;6.83;;;19.50;65.50;;;;;;4937291;29;20442;-50
2021/11/03 10:24:08;;;;;;;7.90;7.30;;;19.80;67.40;;;;;;4948524;29;20437;-55
2021/11/03 10:27:00;;;;;;;7.33;6.83;;;19.70;67.10;;;;;;4947981;29;20442;-50
2021/11/03 10:29:34;;;;;;;7.67;7.17;;;19.90;63.90;;;;;;4951600;28;20497;-52
2021/11/03 10:32:07;;;;;;;7.67;7.17;;;19.80;64.20;;;;;;4950974;29;20433;-51
2021/11/03 10:34:35;;;;;;;7.67;7.17;;;19.90;64.10;;;;;;4951301;29;20466;-51
2021/11/03 10:37:18;;;;;;;7.80;7.30;;;20.10;66.00;;;;;;4949766;29;20445;-49
2021/11/03 10:39:53;;;;;;;7.37;6.87;;;20.30;63.60;;;;;;4950020;29;20449;-47
2021/11/03 10:42:35;;;;;;;6.40;6.00;;;20.90;60.40;;;;;;4939211;29;20426;-49
2021/11/03 10:45:39;;;;;;;6.33;6.03;;;21.30;57.80;;;;;;4949853;29;20448;-52
2021/11/03 10:48:23;;;;;;;5.60;5.30;;;21.80;56.10;;;;;;4946571;29;20444;-48
2021/11/03 10:50:54;;;;;;;6.70;6.30;;;22.00;55.00;;;;;;4951533;29;20425;-47
2021/11/03 10:53:20;;;;;;;6.27;5.97;;;22.10;54.90;;;;;;4949617;29;20464;-52
2021/11/03 10:56:04;;;;;;;6.50;6.10;;;22.30;54.10;;;;;;4950904;29;20449;-52
2021/11/03 10:58:37;;;;;;;5.50;5.20;;;21.70;51.90;;;;;;4950019;29;20278;-54
2021/11/03 11:01:06;;;;;;;5.73;5.43;;;20.30;52.20;;;;;;4950776;29;20436;-53
2021/11/03 11:03:42;;;;;;;6.03;5.67;;;20.10;53.50;;;;;;4949279;28;20458;-51
2021/11/03 11:06:20;;;;;;;6.80;6.40;;;19.90;54.20;;;;;;4947978;29;20443;-51
2021/11/03 11:08:55;;;;;;;6.60;6.20;;;19.50;54.50;;;;;;4946613;29;20472;-48
2021/11/03 11:11:22;;;;;;;6.60;6.20;;;19.40;57.10;;;;;;4930545;29;21071;-53
2021/11/03 11:14:02;;;;;;;6.30;5.90;;;20.10;58.20;;;;;;4950778;29;20421;-49
2021/11/03 11:16:46;;;;;;;6.27;5.87;;;20.60;56.10;;;;;;4948530;29;20432;-54
2021/11/03 11:19:34;;;;;;;6.57;6.17;;;21.10;54.40;;;;;;4949814;29;20442;-49
2021/11/03 11:22:13;;;;;;;7.40;6.90;;;21.50;54.30;;;;;;4940998;29;20420;-50
2021/11/03 11:25:01;;;;;;;7.13;6.63;;;21.80;55.80;;;;;;4950466;29;20429;-49
2021/11/03 11:27:34;;;;;;;8.00;7.50;;;21.60;53.90;;;;;;4950167;29;21361;-50
2021/11/03 11:30:08;;;;;;;7.13;6.63;;;22.00;54.10;;;;;;4950198;29;20488;-49
2021/11/03 11:32:43;;;;;;;7.03;6.63;;;22.00;52.70;;;;;;4946581;29;20939;-57
2021/11/03 11:35:22;;;;;;;6.60;6.20;;;22.30;53.20;;;;;;4949808;29;20807;-53
2021/11/03 11:37:58;;;;;;;7.43;7.00;;;22.00;52.20;;;;;;4950778;29;20916;-49
2021/11/03 11:40:58;;;;;;;6.97;6.57;;;21.90;53.50;;;;;;4938123;29;20547;-50
2021/11/03 11:43:41;;;;;;;6.37;5.87;;;22.00;52.90;;;;;;4902252;29;20484;-49
2021/11/03 11:46:20;;;;;;;7.30;6.80;;;22.10;52.40;;;;;;4951814;29;20440;-50
2021/11/03 11:48:54;;;;;;;7.07;6.57;;;22.20;52.00;;;;;;4952436;29;20840;-52
2021/11/03 11:51:33;;;;;;;7.13;6.73;;;21.80;51.90;;;;;;4942967;29;20427;-49
2021/11/03 11:54:00;;;;;;;7.40;6.90;;;20.90;52.60;;;;;;4953009;29;20455;-53
2021/11/03 11:56:29;;;;;;;8.57;7.97;;;19.80;53.70;;;;;;4948572;29;20526;-52
2021/11/03 11:59:05;;;;;;;7.53;7.03;;;18.90;56.00;;;;;;4954301;29;20413;-51
2021/11/03 12:01:46;;;;;;;8.00;7.50;;;18.40;58.40;;;;;;4950903;29;20436;-52
2021/11/03 12:04:20;;;;;;;8.60;8.00;;;17.90;60.00;;;;;;4942292;29;20874;-49
2021/11/03 12:06:55;;;;;;;8.90;8.20;;;17.60;63.50;;;;;;4953972;29;20471;-49
2021/11/03 12:09:33;;;;;;;6.80;6.30;;;17.70;64.80;;;;;;4953831;29;21095;-49
2021/11/03 12:12:06;;;;;;;7.60;7.10;;;18.50;60.60;;;;;;4955072;28;20587;-53
2021/11/03 12:14:36;;;;;;;7.20;6.70;;;19.40;58.50;;;;;;4948574;28;20425;-52
2021/11/03 12:17:08;;;;;;;7.50;7.00;;;19.80;57.20;;;;;;4953015;29;20428;-48
2021/11/03 12:19:36;;;;;;;7.60;7.10;;;20.40;55.40;;;;;;4952281;29;20430;-53
2021/11/03 12:22:12;;;;;;;6.00;5.70;;;20.90;55.80;;;;;;4934998;29;20425;-53
2021/11/03 12:24:39;;;;;;;7.40;6.80;;;21.40;54.50;;;;;;4939629;29;21131;-52
2021/11/03 12:27:23;;;;;;;6.50;6.20;;;21.40;54.20;;;;;;4935504;29;20820;-50
2021/11/03 12:30:07;;;;;;;7.70;7.20;;;22.20;52.90;;;;;;4937116;29;20535;-52
2021/11/03 12:32:45;;;;;;;6.67;6.27;;;22.10;52.50;;;;;;4935821;29;20441;-53
2021/11/03 12:35:19;;;;;;;6.40;6.00;;;22.20;51.20;;;;;;4937906;29;20931;-54
2021/11/03 12:38:06;;;;;;;6.70;6.30;;;22.20;52.70;;;;;;4937511;29;20904;-50
2021/11/03 12:40:38;;;;;;;6.03;5.63;;;22.00;52.50;;;;;;4944195;29;20433;-50
2021/11/03 12:43:29;;;;;;;6.50;6.10;;;22.20;50.60;;;;;;4953603;29;20421;-51
2021/11/03 12:46:15;;;;;;;6.47;5.97;;;22.00;51.30;;;;;;4952149;29;21357;-55
2021/11/03 12:48:50;;;;;;;6.33;5.93;;;21.50;51.90;;;;;;4948060;29;20456;-50
2021/11/03 12:51:19;;;;;;;6.60;6.30;;;21.00;53.00;;;;;;4952933;28;20459;-54
2021/11/03 12:54:02;;;;;;;6.57;6.10;;;20.90;53.30;;;;;;4951863;29;20438;-51
2021/11/03 12:56:37;;;;;;;7.20;6.73;;;20.90;54.80;;;;;;4949793;29;20417;-51
2021/11/03 12:59:21;;;;;;;6.70;6.30;;;20.70;55.10;;;;;;4952463;29;20761;-49